Cushman, Arkansas
Current Conditions -  °F | °C
As of 3:15 PM on Sunday 23 Nov 2014 (Local Time) from KBVX Reporting Station
Overcast Overcast  
Wind Chill: 15°   Ceiling: 1000
Heat Index: 15°   Visibility: 10mi
Dew Point: 14°   Wind: 0mph
Humidity: 94%   Direction: NA
Pressure: 29.35"   Gusts: NA
Location:  35.87°N, 91.75°W
Report Text: KBVX 232115Z AUTO 00000KT 10SM BKN010 BKN021 OVC120 15/14 A2935 RMK AO1
Loading
Personal Weather Stations






























Interactive Weather Map New forecast layout! Learn more

10-Day Weather Forecast

Advertisements
Track Severe Weather on mobile